Time;durP1;ratioP1;P1;durP2;ratioP2;P2;SDS_P1;SDS_P2;PMS_P1;PMS_P2;Temp;Humidity;BMP_temperature;BMP_pressure;BME280_temperature;BME280_humidity;BME280_pressure;Samples;Min_cycle;Max_cycle;Signal;HPM_P1;HPM_P2
2021/04/21 11:41:20;;;;;;;6.93;5.93;;;;;;;20.53;30.52;96500.28;6007991;23;19953;-86
2021/04/21 11:43:47;;;;;;;5.22;4.78;;;;;;;20.54;28.84;96509.03;4940449;29;20032;-86
2021/04/21 11:46:58;;;;;;;6.43;4.68;;;;;;;20.51;28.37;96505.03;4942776;29;20048;-87
2021/04/21 11:49:59;;;;;;;6.10;5.30;;;;;;;20.63;28.02;96501.47;4941455;29;20064;-86
2021/04/21 11:52:51;;;;;;;7.55;5.63;;;;;;;20.75;27.77;96500.28;4942351;29;20104;-86
2021/04/21 11:55:42;;;;;;;9.95;6.00;;;;;;;20.83;27.88;96488.44;4942544;29;20056;-87
2021/04/21 11:58:32;;;;;;;7.65;4.40;;;;;;;20.86;26.19;96485.31;4928814;29;20039;-86
2021/04/21 12:01:39;;;;;;;6.30;3.90;;;;;;;20.90;26.27;96494.34;4951138;23;20089;-87
2021/04/21 12:07:46;;;;;;;5.13;3.90;;;;;;;21.12;26.09;96489.00;4949471;29;20047;-89
2021/04/21 12:10:52;;;;;;;4.53;3.67;;;;;;;21.17;26.38;96486.38;4954957;29;20056;-89
2021/04/21 12:13:55;;;;;;;4.38;3.95;;;;;;;21.17;27.15;96496.19;4956377;29;20051;-89
2021/04/21 12:28:04;;;;;;;6.40;4.97;;;;;;;20.98;28.54;96504.50;6201542;23;20341;-90
2021/04/21 12:31:05;;;;;;;6.38;4.90;;;;;;;21.05;27.51;96495.53;6185968;23;20021;-89
2021/04/21 12:33:59;;;;;;;7.53;5.10;;;;;;;21.16;27.47;96499.88;6155456;23;20022;-90
2021/04/21 12:36:44;;;;;;;6.47;4.70;;;;;;;21.26;28.98;96489.38;6155412;23;20025;-89
2021/04/21 13:41:42;;;;;;;7.55;5.20;;;;;;;18.61;31.97;96444.97;6154592;23;20006;-88
2021/04/21 13:44:10;;;;;;;8.98;6.00;;;;;;;18.59;31.54;96436.50;6154924;23;20006;-89
2021/04/21 13:46:45;;;;;;;6.18;5.32;;;;;;;18.53;31.46;96441.66;6155277;23;20006;-89
2021/04/21 13:49:18;;;;;;;8.80;5.85;;;;;;;18.46;31.59;96438.38;6155494;23;20002;-88
2021/04/21 14:05:19;;;;;;;7.00;5.10;;;;;;;18.53;31.42;96409.97;6209237;22;20036;-87
2021/04/21 14:07:55;;;;;;;7.50;5.43;;;;;;;18.57;32.88;96412.16;6213736;22;20013;-85
2021/04/21 14:10:23;;;;;;;10.02;5.55;;;;;;;18.59;32.04;96410.06;6212930;22;20053;-86
2021/04/21 14:12:57;;;;;;;8.50;5.85;;;;;;;18.59;32.08;96410.88;6212256;22;20017;-87
2021/04/21 14:15:28;;;;;;;9.00;6.03;;;;;;;18.59;32.41;96413.50;6213154;22;20068;-86
2021/04/21 14:17:59;;;;;;;6.87;5.50;;;;;;;18.60;32.42;96411.66;6213416;22;20005;-86
2021/04/21 14:20:36;;;;;;;8.05;5.40;;;;;;;18.64;32.39;96402.22;6212700;22;20310;-87
2021/04/21 14:23:06;;;;;;;9.40;5.88;;;;;;;18.64;31.74;96405.66;6212853;22;20024;-86
2021/04/21 14:25:36;;;;;;;7.35;5.65;;;;;;;18.60;31.28;96407.16;6212984;22;20036;-87
2021/04/21 14:28:05;;;;;;;7.10;5.60;;;;;;;18.59;31.37;96404.78;6212940;22;20008;-87
2021/04/21 14:30:32;;;;;;;6.00;5.03;;;;;;;18.59;31.24;96400.31;6213625;22;20036;-86
2021/04/21 14:32:59;;;;;;;7.47;5.22;;;;;;;18.63;31.06;96401.44;6212748;22;20028;-87
2021/04/21 14:35:31;;;;;;;7.70;5.15;;;;;;;18.68;31.61;96398.06;6213019;22;20019;-86
2021/04/21 14:38:02;;;;;;;11.52;5.15;;;;;;;18.80;32.03;96396.19;6211163;22;20005;-88
2021/04/21 14:40:34;;;;;;;7.72;4.10;;;;;;;18.88;30.17;96393.16;6210914;22;20017;-88
2021/04/21 14:43:12;;;;;;;;;;;;;;;18.97;30.52;96388.28;6209993;22;20016;-88
2021/04/21 14:45:42;;;;;;;7.07;4.00;;;;;;;19.01;29.15;96388.59;6200713;23;20315;-88
2021/04/21 14:48:13;;;;;;;5.78;3.70;;;;;;;18.99;28.96;96388.03;6208251;23;20040;-89
2021/04/21 14:50:46;;;;;;;3.33;3.03;;;;;;;18.99;28.85;96382.75;6209444;22;20017;-88
2021/04/21 14:53:21;;;;;;;18.83;3.85;;;;;;;19.01;28.77;96370.88;6204973;23;20021;-88
2021/04/21 14:56:01;;;;;;;5.35;3.25;;;;;;;19.05;29.40;96376.50;6206936;23;20017;-88
2021/04/21 14:58:32;;;;;;;3.33;3.00;;;;;;;19.07;28.74;96372.59;6204413;23;20067;-88
2021/04/21 15:01:05;;;;;;;4.53;2.78;;;;;;;19.08;28.44;96376.00;6207707;23;20362;-88
2021/04/21 15:03:33;;;;;;;5.82;5.03;;;;;;;19.07;29.39;96374.44;6214014;23;20021;-89
2021/04/21 15:06:06;;;;;;;5.53;4.13;;;;;;;19.01;30.21;96380.66;6240390;23;20001;-88
2021/04/21 15:09:39;;;;;;;4.70;4.30;;;;;;;18.88;30.87;96379.94;6241797;22;20032;-88
2021/04/21 15:12:16;;;;;;;6.00;4.07;;;;;;;18.83;30.72;96385.16;6242115;22;20020;-89
2021/04/21 15:14:51;;;;;;;4.22;3.60;;;;;;;18.75;29.29;96382.88;6241236;22;20013;-88
2021/04/21 15:17:24;;;;;;;7.25;5.50;;;;;;;18.65;31.22;96383.50;6241779;22;20012;-88
2021/04/21 15:19:52;;;;;;;9.15;6.15;;;;;;;18.51;32.12;96393.53;6242498;22;20024;-88
2021/04/21 15:22:27;;;;;;;9.05;6.47;;;;;;;18.30;32.15;96399.50;6243004;22;20088;-88
2021/04/21 15:25:04;;;;;;;7.72;5.47;;;;;;;18.13;33.07;96402.09;6244073;22;20016;-87
2021/04/21 18:14:59;;;;;;;12.52;8.85;;;;;;;14.22;48.05;96454.66;6165072;23;20036;-76
2021/04/21 18:17:25;;;;;;;13.23;9.93;;;;;;;14.14;48.28;96454.88;6185210;23;20021;-76
